createdAt,value
2016-07-17T00:00:08.214Z,82.09
2016-07-17T00:01:08.207Z,82.57
2016-07-17T00:02:08.206Z,82.29
2016-07-17T00:03:08.208Z,82.29
2016-07-17T00:04:08.212Z,83.11
2016-07-17T00:05:08.194Z,83.25
2016-07-17T00:06:08.200Z,84.06
2016-07-17T00:07:08.199Z,83.97
2016-07-17T00:08:08.194Z,83.92
2016-07-17T00:09:08.193Z,84.26
2016-07-17T00:10:08.193Z,84.16
2016-07-17T00:11:08.179Z,84.45
2016-07-17T00:12:08.194Z,84.35
2016-07-17T00:13:08.183Z,84.06
2016-07-17T00:14:08.166Z,83.78
2016-07-17T00:15:08.168Z,83.3
2016-07-17T00:16:08.176Z,83.3
2016-07-17T00:17:08.179Z,83.3
2016-07-17T00:18:08.164Z,83.68
2016-07-17T00:19:08.160Z,83.68
2016-07-17T00:20:08.168Z,83.78
2016-07-17T00:21:08.164Z,84.55
2016-07-17T00:22:08.152Z,84.92
2016-07-17T00:23:08.152Z,84.64
2016-07-17T00:24:08.147Z,84.16
2016-07-17T00:25:08.145Z,83.87
2016-07-17T00:26:08.140Z,83.49
2016-07-17T00:27:08.142Z,83.97
2016-07-17T00:28:08.136Z,83.68
2016-07-17T00:29:08.135Z,83.78
2016-07-17T00:30:08.125Z,84.16
2016-07-17T00:31:08.873Z,84.55
2016-07-17T00:32:08.129Z,84.35
2016-07-17T00:33:08.138Z,84.26
2016-07-17T00:34:08.121Z,84.26
2016-07-17T00:35:08.135Z,84.64
2016-07-17T00:36:08.137Z,84.64
2016-07-17T00:37:08.110Z,83.97
2016-07-17T00:38:08.111Z,83.39
2016-07-17T00:39:08.105Z,83.87
2016-07-17T00:40:08.117Z,83.39
2016-07-17T00:41:08.102Z,83.39
2016-07-17T00:42:08.110Z,83.59
2016-07-17T00:43:08.113Z,83.39
2016-07-17T00:44:08.105Z,83.2
2016-07-17T00:45:08.111Z,83.3
2016-07-17T00:46:08.089Z,83.2
2016-07-17T00:47:08.094Z,83.39
2016-07-17T00:48:08.094Z,83.01
2016-07-17T00:49:08.079Z,83.78
2016-07-17T00:50:08.078Z,83.59
2016-07-17T00:51:08.080Z,83.87
2016-07-17T00:52:08.083Z,83.97
2016-07-17T00:53:08.107Z,83.97
2016-07-17T00:54:08.072Z,84.06
2016-07-17T00:55:08.068Z,83.97
2016-07-17T00:56:08.079Z,84.06
2016-07-17T00:57:08.062Z,83.97
2016-07-17T00:58:08.052Z,83.59
2016-07-17T00:59:08.055Z,83.87
2016-07-17T01:00:08.055Z,83.49
2016-07-17T01:01:08.051Z,83.78
2016-07-17T01:02:08.051Z,83.68
2016-07-17T01:03:08.044Z,84.55
2016-07-17T01:04:08.051Z,83.97
2016-07-17T01:05:08.048Z,84.45
2016-07-17T01:06:08.037Z,84.45
2016-07-17T01:07:08.033Z,83.39
2016-07-17T01:08:08.028Z,84.06
2016-07-17T01:09:08.023Z,84.64
2016-07-17T01:10:08.034Z,85.21
2016-07-17T01:11:08.021Z,85.12
2016-07-17T01:12:08.014Z,85.21
2016-07-17T01:13:08.013Z,85.02
2016-07-17T01:14:08.023Z,85.69
2016-07-17T01:15:08.023Z,85.79
2016-07-17T01:16:08.004Z,85.31
2016-07-17T01:17:08.019Z,85.5
2016-07-17T01:18:08.000Z,85.79
2016-07-17T01:19:08.003Z,86.27
2016-07-17T01:20:07.996Z,86.27
2016-07-17T01:21:07.998Z,86.27
2016-07-17T01:22:08.003Z,86.36
2016-07-17T01:23:08.000Z,86.17
2016-07-17T01:24:08.008Z,86.94
2016-07-17T01:25:07.992Z,86.55
2016-07-17T01:26:08.003Z,86.84
2016-07-17T01:27:07.994Z,87.13
2016-07-17T01:28:07.975Z,87.41
2016-07-17T01:29:07.986Z,87.51
2016-07-17T01:30:07.969Z,87.51
2016-07-17T01:31:07.968Z,87.23
2016-07-17T01:32:07.964Z,87.41
2016-07-17T01:33:07.959Z,87.23
2016-07-17T01:34:07.960Z,87.13
2016-07-17T01:35:07.968Z,87.32
2016-07-17T01:36:07.959Z,87.51
2016-07-17T01:37:07.952Z,87.32
2016-07-17T01:38:07.956Z,87.61
2016-07-17T01:39:07.943Z,87.8
2016-07-17T01:40:07.942Z,87.8
2016-07-17T01:41:07.947Z,87.99
2016-07-17T01:42:07.946Z,87.47
2016-07-17T01:43:07.926Z,87.95
2016-07-17T01:44:07.928Z,87.85
2016-07-17T01:45:07.939Z,87.95
2016-07-17T01:46:07.938Z,88.81
2016-07-17T01:47:07.918Z,88.43
2016-07-17T01:48:07.916Z,89.48
2016-07-17T01:49:07.917Z,89
2016-07-17T01:50:07.909Z,89.67
2016-07-17T01:51:07.917Z,89.76
2016-07-17T01:52:07.914Z,90.34
2016-07-17T01:53:07.904Z,89.86
2016-07-17T01:54:07.901Z,89.29
2016-07-17T01:55:07.911Z,89.19
2016-07-17T01:56:07.894Z,89.19
2016-07-17T01:57:07.885Z,89.67
2016-07-17T01:58:08.603Z,89.38
2016-07-17T01:59:07.883Z,89.43
2016-07-17T02:00:07.881Z,89.38
2016-07-17T02:01:07.875Z,89.29
2016-07-17T02:02:07.879Z,89.48
2016-07-17T02:03:07.877Z,89.67
2016-07-17T02:04:07.880Z,89.67
2016-07-17T02:05:07.879Z,89.72
2016-07-17T02:06:07.871Z,90.05
2016-07-17T02:07:07.860Z,90.05
2016-07-17T02:08:07.892Z,90.34
2016-07-17T02:09:07.865Z,90.34
2016-07-17T02:10:07.854Z,90.53
2016-07-17T02:11:07.855Z,90.82
2016-07-17T02:12:08.610Z,90.72
2016-07-17T02:13:07.839Z,90.82
2016-07-17T02:14:07.845Z,90.63
2016-07-17T02:15:07.848Z,91.3
2016-07-17T02:16:07.842Z,91.77
2016-07-17T02:17:07.829Z,91.3
2016-07-17T02:18:07.830Z,91.01
2016-07-17T02:19:07.842Z,91.01
2016-07-17T02:20:07.831Z,91.68
2016-07-17T02:21:07.843Z,91.49
2016-07-17T02:22:07.826Z,91.87
2016-07-17T02:23:07.808Z,91.58
2016-07-17T02:24:07.822Z,91.77
2016-07-17T02:25:07.815Z,91.49
2016-07-17T02:26:07.822Z,91.87
2016-07-17T02:27:07.813Z,91.87
2016-07-17T02:28:07.801Z,92.25
2016-07-17T02:29:08.508Z,91.97
2016-07-17T02:30:07.786Z,91.87
2016-07-17T02:31:07.796Z,92.16
2016-07-17T02:32:07.786Z,91.68
2016-07-17T02:33:07.793Z,91.68
2016-07-17T02:34:07.784Z,91.39
2016-07-17T02:35:07.786Z,91.39
2016-07-17T02:36:07.789Z,91.49
2016-07-17T02:37:07.769Z,91.77
2016-07-17T02:38:07.809Z,91.68
2016-07-17T02:39:07.793Z,91.87
2016-07-17T02:40:07.762Z,91.49
2016-07-17T02:41:07.760Z,92.16
2016-07-17T02:42:07.778Z,92.06
2016-07-17T02:43:07.748Z,92.73
2016-07-17T02:44:07.766Z,92.44
2016-07-17T02:45:07.755Z,92.73
2016-07-17T02:46:07.758Z,92.73
2016-07-17T02:47:07.752Z,92.16
2016-07-17T02:48:07.737Z,92.54
2016-07-17T02:49:07.734Z,92.44
2016-07-17T02:50:07.738Z,92.44
2016-07-17T02:51:07.728Z,92.06
2016-07-17T02:52:07.730Z,91.87
2016-07-17T02:53:07.726Z,92.06
2016-07-17T02:54:07.728Z,92.54
2016-07-17T02:55:07.723Z,91.87
2016-07-17T02:56:07.720Z,91.97
2016-07-17T02:57:07.727Z,92.06
2016-07-17T02:58:07.706Z,91.87
2016-07-17T02:59:07.708Z,92.16
2016-07-17T03:00:07.701Z,91.87
2016-07-17T03:01:07.710Z,92.44
2016-07-17T03:02:07.698Z,92.54
2016-07-17T03:03:07.691Z,92.35
2016-07-17T03:04:07.689Z,93.12
2016-07-17T03:05:07.690Z,92.35
2016-07-17T03:06:07.702Z,92.44
2016-07-17T03:07:07.689Z,92.54
2016-07-17T03:08:07.682Z,92.73
2016-07-17T03:09:07.673Z,91.87
2016-07-17T03:10:07.672Z,92.16
2016-07-17T03:11:07.682Z,91.82
2016-07-17T03:12:07.659Z,91.97
2016-07-17T03:13:07.666Z,92.73
2016-07-17T03:14:07.666Z,92.54
2016-07-17T03:15:07.674Z,92.06
2016-07-17T03:16:07.650Z,92.25
2016-07-17T03:17:07.656Z,92.44
2016-07-17T03:18:07.644Z,92.35
2016-07-17T03:19:07.650Z,92.63
2016-07-17T03:20:07.637Z,92.73
2016-07-17T03:21:07.638Z,92.92
2016-07-17T03:22:07.633Z,92.44
2016-07-17T03:23:07.633Z,92.54
2016-07-17T03:24:07.638Z,92.54
2016-07-17T03:25:07.638Z,92.54
2016-07-17T03:26:07.661Z,92.83
2016-07-17T03:27:07.624Z,92.83
2016-07-17T03:28:07.622Z,93.21
2016-07-17T03:29:07.613Z,93.12
2016-07-17T03:30:07.614Z,93.12
2016-07-17T03:31:07.613Z,92.73
2016-07-17T03:32:07.607Z,93.12
2016-07-17T03:33:07.612Z,93.12
2016-07-17T03:34:07.608Z,92.4
2016-07-17T03:35:07.591Z,92.58
2016-07-17T03:36:07.804Z,91.87
2016-07-17T03:37:07.601Z,92.01
2016-07-17T03:38:07.628Z,92.58
2016-07-17T03:39:07.581Z,92.4
2016-07-17T03:40:07.587Z,91.72
2016-07-17T03:41:07.593Z,92.01
2016-07-17T03:42:07.576Z,91.87
2016-07-17T03:43:07.583Z,92.58
2016-07-17T03:44:07.673Z,92.68
2016-07-17T03:45:07.587Z,92.58
2016-07-17T03:46:07.828Z,92.78
2016-07-17T03:47:08.323Z,92.44
2016-07-17T03:48:07.572Z,92.58
2016-07-17T03:49:07.555Z,92.58
2016-07-17T03:50:07.557Z,92.58
2016-07-17T03:51:07.546Z,92.68
2016-07-17T03:52:07.572Z,91.92
2016-07-17T03:53:07.554Z,91.92
2016-07-17T03:54:07.543Z,91.72
2016-07-17T03:55:07.541Z,91.05
2016-07-17T03:56:07.535Z,91.34
2016-07-17T03:57:07.542Z,90.96
2016-07-17T03:58:07.548Z,90.58
2016-07-17T03:59:07.534Z,90.48
2016-07-17T04:00:07.519Z,90.77
2016-07-17T04:01:07.521Z,90.48
2016-07-17T04:02:07.521Z,90.09
2016-07-17T04:03:07.530Z,90
2016-07-17T04:04:07.524Z,90.48
2016-07-17T04:05:07.505Z,90.19
2016-07-17T04:06:07.515Z,90.19
2016-07-17T04:07:07.505Z,90.29
2016-07-17T04:08:07.511Z,90.29
2016-07-17T04:09:07.498Z,90.29
2016-07-17T04:10:07.528Z,90.39
2016-07-17T04:11:08.717Z,90.09
2016-07-17T04:12:08.608Z,90.29
2016-07-17T04:13:22.388Z,90.09
2016-07-17T04:14:07.713Z,89.9
2016-07-17T04:15:07.627Z,90.19
2016-07-17T04:16:07.488Z,90.29
2016-07-17T04:17:07.736Z,89.62
2016-07-17T04:18:07.530Z,90
2016-07-17T04:19:07.472Z,89.81
2016-07-17T04:20:07.543Z,90
2016-07-17T04:22:07.462Z,90.29
2016-07-17T04:23:07.453Z,90
2016-07-17T04:24:07.476Z,90.67
2016-07-17T04:25:08.559Z,90.29
2016-07-17T04:26:07.441Z,89.9
2016-07-17T04:27:07.462Z,90.39
2016-07-17T04:28:07.447Z,90.67
2016-07-17T04:29:07.436Z,90.67
2016-07-17T04:30:07.447Z,90.58
2016-07-17T04:31:07.426Z,90.58
2016-07-17T04:32:07.474Z,90.29
2016-07-17T04:33:07.431Z,90.77
2016-07-17T04:34:07.433Z,90.43
2016-07-17T04:35:07.419Z,90.43
2016-07-17T04:36:07.425Z,90.62
2016-07-17T04:37:07.410Z,90.43
2016-07-17T04:38:07.421Z,90.33
2016-07-17T04:39:07.409Z,90.23
2016-07-17T04:40:07.412Z,89.95
2016-07-17T04:41:07.409Z,89.37
2016-07-17T04:42:07.398Z,89.09
2016-07-17T04:43:07.400Z,89.18
2016-07-17T04:44:07.397Z,89.28
2016-07-17T04:45:07.400Z,88.9
2016-07-17T04:46:07.391Z,89.47
2016-07-17T04:47:07.386Z,89.95
2016-07-17T04:48:07.389Z,90.05
2016-07-17T04:49:07.384Z,90.43
2016-07-17T04:50:07.385Z,89.86
2016-07-17T04:51:07.377Z,89.09
2016-07-17T04:52:07.382Z,89.57
2016-07-17T04:53:07.377Z,89.76
2016-07-17T04:54:07.376Z,89.76
2016-07-17T04:55:07.373Z,89.95
2016-07-17T04:56:07.371Z,89.57
2016-07-17T04:57:07.362Z,89.86
2016-07-17T04:58:07.360Z,88.9
2016-07-17T04:59:07.363Z,88.9
2016-07-17T05:00:07.367Z,89.28
2016-07-17T05:01:07.357Z,89.57
2016-07-17T05:02:07.349Z,89.09
2016-07-17T05:03:07.362Z,88.8
2016-07-17T05:04:07.363Z,89.09
2016-07-17T05:05:07.368Z,88.9
2016-07-17T05:06:07.358Z,88.99
2016-07-17T05:07:07.344Z,88.42
2016-07-17T05:08:07.336Z,89.23
2016-07-17T05:09:07.341Z,89.13
2016-07-17T05:10:07.338Z,88.65
2016-07-17T05:11:07.341Z,88.94
2016-07-17T05:12:07.350Z,89.13
2016-07-17T05:13:07.360Z,89.32
2016-07-17T05:14:07.329Z,89.42
2016-07-17T05:15:07.337Z,89.32
2016-07-17T05:16:07.320Z,89.51
2016-07-17T05:17:07.345Z,88.46
2016-07-17T05:18:07.344Z,89.04
2016-07-17T05:19:07.310Z,88.17
2016-07-17T05:20:07.307Z,87.79
2016-07-17T05:21:07.310Z,87.21
2016-07-17T05:22:07.304Z,87.41
2016-07-17T05:23:07.293Z,87.41
2016-07-17T05:24:07.298Z,87.6
2016-07-17T05:25:07.308Z,87.98
2016-07-17T05:26:07.315Z,87.6
2016-07-17T05:27:07.311Z,87.21
2016-07-17T05:28:07.316Z,86.11
2016-07-17T05:29:07.331Z,86.64
2016-07-17T05:30:07.302Z,86.64
2016-07-17T05:31:07.350Z,87.64
2016-07-17T05:32:07.284Z,87.16
2016-07-17T05:33:07.995Z,86.74
2016-07-17T05:34:07.297Z,87.64
2016-07-17T05:35:07.282Z,86.68
2016-07-17T05:36:07.319Z,86.58
2016-07-17T05:37:07.284Z,86.01
2016-07-17T05:38:07.292Z,86.58
2016-07-17T05:39:07.299Z,86.3
2016-07-17T05:40:07.312Z,86.49
2016-07-17T05:41:07.317Z,86.11
2016-07-17T05:42:07.319Z,86.4
2016-07-17T05:43:07.336Z,86.4
2016-07-17T05:44:07.261Z,85.92
2016-07-17T05:45:07.262Z,86.88
2016-07-17T05:46:07.966Z,87.07
2016-07-17T05:47:07.256Z,86.78
2016-07-17T05:48:07.453Z,87.26
2016-07-17T05:49:07.267Z,87.35
2016-07-17T05:50:07.279Z,87.45
2016-07-17T05:51:07.293Z,87.26
2016-07-17T05:52:07.302Z,87.26
2016-07-17T05:53:07.296Z,86.78
2016-07-17T05:54:07.306Z,86.78
2016-07-17T05:55:07.315Z,85.44
2016-07-17T05:56:07.248Z,85.53
2016-07-17T05:57:07.228Z,84.42
2016-07-17T05:58:07.244Z,84.81
2016-07-17T05:59:07.252Z,85
2016-07-17T06:00:07.257Z,85.38
2016-07-17T06:01:07.260Z,85.48
2016-07-17T06:02:07.272Z,85.1
2016-07-17T06:03:07.281Z,85.48
2016-07-17T06:04:07.287Z,85.19
2016-07-17T06:05:07.302Z,85
2016-07-17T06:06:07.296Z,84.48
2016-07-17T06:07:07.306Z,85.05
2016-07-17T06:08:07.300Z,84.95
2016-07-17T06:09:07.220Z,85.53
2016-07-17T06:10:07.225Z,85.05
2016-07-17T06:11:07.236Z,85.82
2016-07-17T06:12:07.241Z,85.63
2016-07-17T06:13:07.257Z,85.53
2016-07-17T06:14:07.259Z,85.53
2016-07-17T06:15:07.266Z,85.53
2016-07-17T06:16:07.269Z,85.53
2016-07-17T06:17:07.282Z,86.4
2016-07-17T06:18:07.246Z,86.4
2016-07-17T06:19:07.280Z,86.58
2016-07-17T06:20:07.293Z,86.88
2016-07-17T06:21:07.200Z,87.64
2016-07-17T06:22:07.210Z,87.21
2016-07-17T06:23:07.276Z,87.21
2016-07-17T06:24:07.220Z,87.6
2016-07-17T06:25:07.269Z,87.31
2016-07-17T06:26:07.240Z,87.21
2016-07-17T06:27:07.251Z,87.41
2016-07-17T06:28:07.252Z,88.56
2016-07-17T06:29:07.252Z,88.37
2016-07-17T06:30:07.268Z,88.65
2016-07-17T06:31:07.273Z,89.42
2016-07-17T06:32:07.278Z,89.51
2016-07-17T06:33:07.237Z,89.23
2016-07-17T06:34:07.200Z,89.04
2016-07-17T06:35:07.200Z,89.61
2016-07-17T06:36:07.204Z,90.19
2016-07-17T06:37:07.222Z,90.38
2016-07-17T06:38:07.244Z,90
2016-07-17T06:39:07.203Z,90.67
2016-07-17T06:40:07.241Z,90.47
2016-07-17T06:41:07.257Z,91.43
2016-07-17T06:42:07.255Z,90.95
2016-07-17T06:43:07.920Z,91.14
2016-07-17T06:44:07.220Z,91.29
2016-07-17T06:45:07.203Z,91.96
2016-07-17T06:46:07.180Z,91.96
2016-07-17T06:47:07.203Z,92.54
2016-07-17T06:48:07.205Z,92.73
2016-07-17T06:49:07.226Z,92.35
2016-07-17T06:50:07.213Z,93.4
2016-07-17T06:51:07.248Z,93.11
2016-07-17T06:52:07.436Z,92.82
2016-07-17T06:53:07.236Z,92.82
2016-07-17T06:54:07.179Z,93.3
2016-07-17T06:55:07.180Z,93.02
2016-07-17T06:56:07.190Z,93.16
2016-07-17T06:57:07.208Z,93.44
2016-07-17T06:58:07.174Z,93.35
2016-07-17T06:59:07.177Z,93.26
2016-07-17T07:00:07.192Z,93.06
2016-07-17T07:01:07.195Z,93.59
2016-07-17T07:02:07.209Z,93.73
2016-07-17T07:03:07.815Z,93.69
2016-07-17T07:04:07.214Z,93.78
2016-07-17T07:05:07.220Z,93.63
2016-07-17T07:06:07.171Z,93.73
2016-07-17T07:07:07.177Z,94.4
2016-07-17T07:08:07.861Z,94.4
2016-07-17T07:09:07.192Z,93.44
2016-07-17T07:10:07.200Z,93.73
2016-07-17T07:11:07.814Z,93.93
2016-07-17T07:12:07.173Z,93.83
2016-07-17T07:13:07.195Z,93.93
2016-07-17T07:14:07.131Z,94.21
2016-07-17T07:15:07.186Z,93.63
2016-07-17T07:16:07.197Z,93.63
2016-07-17T07:17:07.156Z,93.54
2016-07-17T07:18:07.161Z,94.02
2016-07-17T07:19:07.160Z,93.73
2016-07-17T07:20:07.173Z,93.83
2016-07-17T07:21:07.170Z,93.16
2016-07-17T07:22:07.177Z,93.35
2016-07-17T07:23:07.153Z,93.73
2016-07-17T07:24:07.161Z,93.63
2016-07-17T07:25:07.175Z,94.21
2016-07-17T07:26:07.171Z,94.21
2016-07-17T07:27:07.115Z,93.63
2016-07-17T07:28:07.122Z,92.77
2016-07-17T07:29:07.129Z,92.87
2016-07-17T07:30:07.157Z,93.63
2016-07-17T07:31:07.144Z,93.73
2016-07-17T07:32:07.149Z,94.21
2016-07-17T07:33:07.169Z,94.31
2016-07-17T07:34:07.168Z,94.02
2016-07-17T07:35:07.179Z,93.93
2016-07-17T07:36:07.138Z,94.4
2016-07-17T07:37:07.154Z,94.02
2016-07-17T07:38:07.099Z,94.26
2016-07-17T07:39:07.105Z,93.97
2016-07-17T07:40:07.110Z,93.97
2016-07-17T07:41:07.111Z,94.26
2016-07-17T07:42:07.071Z,94.45
2016-07-17T07:43:07.127Z,93.97
2016-07-17T07:44:07.137Z,94.26
2016-07-17T07:45:07.138Z,93.54
2016-07-17T07:46:07.155Z,94.59
2016-07-17T07:47:07.153Z,93.63
2016-07-17T07:48:07.059Z,93.92
2016-07-17T07:49:07.067Z,93.73
2016-07-17T07:50:07.077Z,93.82
2016-07-17T07:51:07.083Z,93.54
2016-07-17T07:52:07.089Z,92.48
2016-07-17T07:53:07.097Z,92.86
2016-07-17T07:54:07.107Z,92.68
2016-07-17T07:55:07.120Z,93.06
2016-07-17T07:56:07.122Z,93.25
2016-07-17T07:57:07.126Z,93.82
2016-07-17T07:58:07.136Z,93.15
2016-07-17T07:59:07.139Z,93.82
2016-07-17T08:00:07.053Z,93.63
2016-07-17T08:01:07.049Z,93.82
2016-07-17T08:02:07.056Z,93.63
2016-07-17T08:03:07.059Z,94.02
2016-07-17T08:04:07.078Z,93.35
2016-07-17T08:05:07.091Z,93.63
2016-07-17T08:06:07.095Z,93.82
2016-07-17T08:07:07.095Z,93.63
2016-07-17T08:08:07.111Z,93.06
2016-07-17T08:09:07.117Z,92.77
2016-07-17T08:10:07.123Z,92.77
2016-07-17T08:11:07.132Z,92.82
2016-07-17T08:12:07.132Z,93.39
2016-07-17T08:13:07.042Z,93.01
2016-07-17T08:14:07.047Z,93.01
2016-07-17T08:15:07.715Z,92.57
2016-07-17T08:16:07.064Z,92.67
2016-07-17T08:17:07.069Z,92.48
2016-07-17T08:18:07.077Z,92.05
2016-07-17T08:19:07.086Z,91.66
2016-07-17T08:20:07.107Z,90.89
2016-07-17T08:21:07.109Z,88.68
2016-07-17T08:22:07.113Z,88.68
2016-07-17T08:23:07.120Z,88.49
2016-07-17T08:24:07.122Z,89.16
2016-07-17T08:25:07.026Z,87.05
2016-07-17T08:26:07.037Z,87.92
2016-07-17T08:27:07.037Z,88.87
2016-07-17T08:28:07.046Z,88.64
2016-07-17T08:29:07.060Z,89.22
2016-07-17T08:30:07.062Z,89.5
2016-07-17T08:31:07.068Z,89.22
2016-07-17T08:32:07.108Z,88.64
2016-07-17T08:33:07.077Z,88.45
2016-07-17T08:34:07.087Z,87.96
2016-07-17T08:35:07.102Z,89.22
2016-07-17T08:36:07.125Z,89.02
2016-07-17T08:37:07.118Z,88.79
2016-07-17T08:38:07.014Z,89.26
2016-07-17T08:39:07.029Z,89.75
2016-07-17T08:40:07.034Z,90.22
2016-07-17T08:41:07.050Z,90.22
2016-07-17T08:42:07.064Z,91.33
2016-07-17T08:43:07.049Z,91.62
2016-07-17T08:44:07.066Z,91.91
2016-07-17T08:45:07.070Z,92.58
2016-07-17T08:46:07.080Z,92.72
2016-07-17T08:47:07.100Z,93.25
2016-07-17T08:48:07.089Z,93.3
2016-07-17T08:49:07.101Z,93.88
2016-07-17T08:50:07.001Z,93.97
2016-07-17T08:51:07.019Z,93.88
2016-07-17T08:52:07.033Z,94.54
2016-07-17T08:53:08.732Z,94.07
2016-07-17T08:54:06.947Z,94.54
2016-07-17T08:55:06.945Z,94.07
2016-07-17T08:56:06.955Z,94.5
2016-07-17T08:57:06.992Z,94.79
2016-07-17T08:58:07.021Z,94.98
2016-07-17T08:59:07.948Z,95.56
2016-07-17T09:00:09.720Z,95.56
2016-07-17T09:01:07.028Z,95.65
2016-07-17T09:02:06.940Z,95.46
2016-07-17T09:03:06.950Z,96.22
2016-07-17T09:04:07.664Z,96.13
2016-07-17T09:05:06.974Z,96.22
2016-07-17T09:06:06.926Z,96.22
2016-07-17T09:07:06.948Z,95.84
2016-07-17T09:08:06.922Z,96.61
2016-07-17T09:09:06.918Z,96.42
2016-07-17T09:10:06.921Z,96.89
2016-07-17T09:11:06.924Z,96.89
2016-07-17T09:12:06.939Z,96.8
2016-07-17T09:13:06.927Z,96.89
2016-07-17T09:14:06.878Z,97.09
2016-07-17T09:15:06.880Z,97.28
2016-07-17T09:16:06.876Z,97.18
2016-07-17T09:17:06.876Z,97.47
2016-07-17T09:18:06.873Z,97.47
2016-07-17T09:19:06.872Z,97.47
2016-07-17T09:20:06.871Z,97.09
2016-07-17T09:21:06.880Z,97.47
2016-07-17T09:22:06.889Z,97.85
2016-07-17T09:23:06.869Z,98.14
2016-07-17T09:24:06.860Z,97.85
2016-07-17T09:25:06.876Z,98.48
2016-07-17T09:26:06.868Z,98.67
2016-07-17T09:27:07.052Z,98.48
2016-07-17T09:28:06.838Z,97.81
2016-07-17T09:29:06.838Z,97.81
2016-07-17T09:30:07.238Z,97.33
2016-07-17T09:31:06.951Z,97.52
2016-07-17T09:32:06.825Z,97.76
2016-07-17T09:33:06.836Z,97.66
2016-07-17T09:34:06.818Z,97.38
2016-07-17T09:35:06.823Z,97.19
2016-07-17T09:36:06.826Z,97.47
2016-07-17T09:37:06.825Z,97.86
2016-07-17T09:38:06.821Z,98.19
2016-07-17T09:39:06.824Z,97.91
2016-07-17T09:40:06.812Z,98.19
2016-07-17T09:41:06.827Z,98
2016-07-17T09:42:06.925Z,98.05
2016-07-17T09:43:06.820Z,95.75
2016-07-17T09:44:06.807Z,95.45
2016-07-17T09:45:06.933Z,95.17
2016-07-17T09:46:06.815Z,95.4
2016-07-17T09:47:06.815Z,95.31
2016-07-17T09:48:06.839Z,94.64
2016-07-17T09:49:06.834Z,94.78
2016-07-17T09:50:06.829Z,94.21
2016-07-17T09:51:06.992Z,93.82
2016-07-17T09:52:06.836Z,94.11
2016-07-17T09:53:06.993Z,93.92
2016-07-17T09:54:07.016Z,94.26
2016-07-17T09:55:06.875Z,94.74
2016-07-17T09:56:06.998Z,94.88
2016-07-17T09:57:06.930Z,95.31
2016-07-17T09:58:06.887Z,95.26
2016-07-17T09:59:06.798Z,95.65
2016-07-17T10:00:06.806Z,95.17
2016-07-17T10:01:06.996Z,95.55
2016-07-17T10:02:06.834Z,95.55
2016-07-17T10:03:06.836Z,95.5
2016-07-17T10:04:06.805Z,95.5
2016-07-17T10:05:06.806Z,95.6
2016-07-17T10:06:06.863Z,95.26
2016-07-17T10:07:06.814Z,94.3
2016-07-17T10:08:07.001Z,94.73
2016-07-17T10:09:07.107Z,93.58
2016-07-17T10:10:06.835Z,93.68
2016-07-17T10:11:06.805Z,93.53
2016-07-17T10:12:06.795Z,93.29
2016-07-17T10:13:06.810Z,93.29
2016-07-17T10:14:06.792Z,91.02
2016-07-17T10:15:06.998Z,88.56
2016-07-17T10:16:06.808Z,83.94
2016-07-17T10:17:06.815Z,85.13
2016-07-17T10:18:06.788Z,84.94
2016-07-17T10:19:06.783Z,83.11
2016-07-17T10:20:06.901Z,83.88
2016-07-17T10:21:07.552Z,83.3
2016-07-17T10:22:06.779Z,83.98
2016-07-17T10:23:06.773Z,82.96
2016-07-17T10:24:06.786Z,79.1
2016-07-17T10:25:06.812Z,78.42
2016-07-17T10:26:06.784Z,80.89
2016-07-17T10:27:06.818Z,82.62
2016-07-17T10:28:06.822Z,83.11
2016-07-17T10:29:06.798Z,83.59
2016-07-17T10:30:06.817Z,84.65
2016-07-17T10:31:06.798Z,85.61
2016-07-17T10:32:06.823Z,84.46
2016-07-17T10:33:06.825Z,82.86
2016-07-17T10:34:06.806Z,81.22
2016-07-17T10:35:07.570Z,80.54
2016-07-17T10:36:06.818Z,81.22
2016-07-17T10:37:06.794Z,82.43
2016-07-17T10:38:06.829Z,82.82
2016-07-17T10:39:06.810Z,82.92
2016-07-17T10:40:06.844Z,82.53
2016-07-17T10:41:06.840Z,80.27
2016-07-17T10:42:06.817Z,81.33
2016-07-17T10:43:06.829Z,82.83
2016-07-17T10:44:06.866Z,83.22
2016-07-17T10:45:06.827Z,83.41
2016-07-17T10:46:06.832Z,83.47
2016-07-17T10:47:06.822Z,83.47
2016-07-17T10:48:06.826Z,84.29
2016-07-17T10:49:06.832Z,85.06
2016-07-17T10:50:06.817Z,86.41
2016-07-17T10:51:06.816Z,86.12
2016-07-17T10:52:06.827Z,86.41
2016-07-17T10:53:06.840Z,86.74
2016-07-17T10:54:06.819Z,85.1
2016-07-17T10:55:06.835Z,86.07
2016-07-17T10:56:06.860Z,86.35
2016-07-17T10:57:06.843Z,83.95
2016-07-17T10:58:06.840Z,84.72
2016-07-17T10:59:21.721Z,85.3
2016-07-17T11:00:06.835Z,84.09
2016-07-17T11:01:06.854Z,84.09
2016-07-17T11:02:06.838Z,84.86
2016-07-17T11:03:06.827Z,84.7
2016-07-17T11:04:06.942Z,78.83
2016-07-17T11:05:06.826Z,78.83
2016-07-17T11:06:07.158Z,78
2016-07-17T11:07:06.839Z,80.51
2016-07-17T11:08:06.937Z,78.71
2016-07-17T11:09:06.840Z,79
2016-07-17T11:10:06.880Z,79
2016-07-17T11:11:06.875Z,79.19
2016-07-17T11:12:06.879Z,79.97
2016-07-17T11:13:07.003Z,79.81
2016-07-17T11:14:06.947Z,71.51
2016-07-17T11:15:06.867Z,74.79
2016-07-17T11:16:06.871Z,77.11
2016-07-17T11:17:06.866Z,79.62
2016-07-17T11:18:06.874Z,79.04
2016-07-17T11:19:06.876Z,70.78
2016-07-17T11:20:06.866Z,73.15
2016-07-17T11:21:06.874Z,74.69
2016-07-17T11:22:06.867Z,75.85
2016-07-17T11:23:07.104Z,74.41
2016-07-17T11:24:07.122Z,76.63
2016-07-17T11:25:06.874Z,77.5
2016-07-17T11:26:06.880Z,79.04
2016-07-17T11:27:06.893Z,77.88
2016-07-17T11:28:06.884Z,78.41
2016-07-17T11:29:07.591Z,77.34
2016-07-17T11:30:06.885Z,78.11
2016-07-17T11:31:07.013Z,75.06
2016-07-17T11:32:07.023Z,72.74
2016-07-17T11:33:06.903Z,76.03
2016-07-17T11:34:06.939Z,76.12
2016-07-17T11:35:06.895Z,76.61
2016-07-17T11:36:06.983Z,77.48
2016-07-17T11:37:06.927Z,76.51
2016-07-17T11:38:06.975Z,71
2016-07-17T11:39:06.916Z,73.38
2016-07-17T11:40:07.352Z,74.54
2016-07-17T11:41:07.137Z,75.89
2016-07-17T11:42:06.915Z,73.77
2016-07-17T11:43:06.933Z,74.6
2016-07-17T11:44:07.697Z,76.82
2016-07-17T11:45:06.940Z,78.27
2016-07-17T11:46:06.954Z,78.81
2016-07-17T11:47:06.939Z,79.19
2016-07-17T11:48:06.953Z,76.2
2016-07-17T11:49:07.054Z,77.17
2016-07-17T11:50:06.948Z,77.61
2016-07-17T11:51:06.937Z,79.06
2016-07-17T11:52:06.938Z,79.41
2016-07-17T11:53:06.945Z,79.79
2016-07-17T11:54:06.976Z,79.89
2016-07-17T11:55:06.960Z,80.85
2016-07-17T11:56:06.951Z,81.52
2016-07-17T11:57:06.957Z,82.68
2016-07-17T11:58:06.966Z,81.33
2016-07-17T11:59:06.971Z,80.43
2016-07-17T12:00:06.977Z,81.68
2016-07-17T12:01:07.032Z,83.03
2016-07-17T12:02:07.026Z,83.61
2016-07-17T12:03:07.165Z,83.89
2016-07-17T12:04:06.983Z,84.56
2016-07-17T12:05:06.975Z,84.38
2016-07-17T12:06:06.968Z,84.22
2016-07-17T12:07:06.993Z,84.12
2016-07-17T12:08:07.001Z,82.43
2016-07-17T12:09:06.966Z,82.14
2016-07-17T12:10:07.021Z,82.28
2016-07-17T12:11:06.992Z,82.96
2016-07-17T12:12:06.982Z,83.15
2016-07-17T12:13:07.019Z,82.28
2016-07-17T12:14:06.994Z,82.18
2016-07-17T12:15:06.999Z,81.55
2016-07-17T12:16:06.986Z,80.97
2016-07-17T12:17:07.273Z,80.06
2016-07-17T12:18:07.271Z,77.65
2016-07-17T12:19:07.156Z,78.23
2016-07-17T12:20:07.275Z,77.84
2016-07-17T12:21:07.181Z,78.52
2016-07-17T12:22:07.150Z,78.61
2016-07-17T12:23:07.167Z,79.58
2016-07-17T12:24:07.164Z,80.26
2016-07-17T12:25:07.203Z,79.77
2016-07-17T12:26:07.212Z,79.87
2016-07-17T12:27:07.195Z,80.45
2016-07-17T12:28:07.219Z,80.26
2016-07-17T12:29:07.207Z,79.58
2016-07-17T12:30:07.234Z,79.04
2016-07-17T12:31:07.213Z,79.24
2016-07-17T12:32:07.220Z,77.21
2016-07-17T12:33:07.294Z,76.63
2016-07-17T12:34:07.164Z,73.93
2016-07-17T12:35:07.144Z,74.79
2016-07-17T12:36:07.182Z,75.37
2016-07-17T12:37:07.195Z,76.63
2016-07-17T12:38:08.235Z,74.89
2016-07-17T12:39:07.260Z,75.37
2016-07-17T12:40:07.075Z,76.18
2016-07-17T12:41:07.033Z,76.47
2016-07-17T12:42:07.043Z,74.35
2016-07-17T12:43:07.052Z,74.93
2016-07-17T12:44:07.094Z,74.87
2016-07-17T12:45:07.087Z,76.12
2016-07-17T12:46:07.210Z,76.61
2016-07-17T12:47:07.116Z,76.8
2016-07-17T12:48:07.136Z,76.7
2016-07-17T12:49:07.117Z,71.78
2016-07-17T12:50:07.127Z,72.64
2016-07-17T12:51:07.129Z,70.23
2016-07-17T12:52:07.161Z,71.55
2016-07-17T12:53:07.162Z,72.13
2016-07-17T12:54:07.254Z,72.13
2016-07-17T12:55:07.490Z,74.35
2016-07-17T12:56:07.157Z,74.25